sensor_id;sensor_type;location;lat;lon;timestamp;P1;durP1;ratioP1;P2;durP2;ratioP2
18174;SDS011;9212;50.894;16.714;2023-03-01T00:02:12;18.73;;;7.00;;
18174;SDS011;9212;50.894;16.714;2023-03-01T00:04:39;19.10;;;8.50;;
18174;SDS011;9212;50.894;16.714;2023-03-01T00:07:08;18.90;;;8.13;;
18174;SDS011;9212;50.894;16.714;2023-03-01T00:09:35;19.43;;;7.23;;
18174;SDS011;9212;50.894;16.714;2023-03-01T00:12:03;12.73;;;6.63;;
18174;SDS011;9212;50.894;16.714;2023-03-01T00:14:30;14.27;;;7.30;;
18174;SDS011;9212;50.894;16.714;2023-03-01T00:16:57;15.10;;;7.33;;
18174;SDS011;9212;50.894;16.714;2023-03-01T00:19:25;12.93;;;7.40;;
18174;SDS011;9212;50.894;16.714;2023-03-01T00:21:52;15.37;;;6.97;;
18174;SDS011;9212;50.894;16.714;2023-03-01T00:24:21;13.57;;;6.53;;
18174;SDS011;9212;50.894;16.714;2023-03-01T00:26:48;20.83;;;8.77;;
18174;SDS011;9212;50.894;16.714;2023-03-01T00:29:15;18.73;;;6.83;;
18174;SDS011;9212;50.894;16.714;2023-03-01T00:31:42;20.30;;;9.57;;
18174;SDS011;9212;50.894;16.714;2023-03-01T00:34:09;14.50;;;8.10;;
18174;SDS011;9212;50.894;16.714;2023-03-01T00:36:37;18.57;;;8.53;;
18174;SDS011;9212;50.894;16.714;2023-03-01T00:39:05;14.90;;;7.23;;
18174;SDS011;9212;50.894;16.714;2023-03-01T00:41:38;16.37;;;7.83;;
18174;SDS011;9212;50.894;16.714;2023-03-01T00:44:05;22.50;;;7.83;;
18174;SDS011;9212;50.894;16.714;2023-03-01T00:46:32;20.13;;;8.60;;
18174;SDS011;9212;50.894;16.714;2023-03-01T00:49:00;20.90;;;8.20;;
18174;SDS011;9212;50.894;16.714;2023-03-01T00:51:27;19.63;;;8.17;;
18174;SDS011;9212;50.894;16.714;2023-03-01T00:53:56;17.03;;;8.10;;
18174;SDS011;9212;50.894;16.714;2023-03-01T00:56:24;17.70;;;8.27;;
18174;SDS011;9212;50.894;16.714;2023-03-01T00:58:52;21.40;;;8.23;;
18174;SDS011;9212;50.894;16.714;2023-03-01T01:01:20;21.83;;;8.57;;
18174;SDS011;9212;50.894;16.714;2023-03-01T01:03:49;19.77;;;8.77;;
18174;SDS011;9212;50.894;16.714;2023-03-01T01:06:18;17.10;;;8.30;;
18174;SDS011;9212;50.894;16.714;2023-03-01T01:08:46;24.13;;;9.67;;
18174;SDS011;9212;50.894;16.714;2023-03-01T01:11:13;15.77;;;8.37;;
18174;SDS011;9212;50.894;16.714;2023-03-01T01:13:41;17.77;;;8.40;;
18174;SDS011;9212;50.894;16.714;2023-03-01T01:16:09;18.87;;;9.50;;
18174;SDS011;9212;50.894;16.714;2023-03-01T01:18:36;20.03;;;9.00;;
18174;SDS011;9212;50.894;16.714;2023-03-01T01:21:04;19.93;;;8.93;;
18174;SDS011;9212;50.894;16.714;2023-03-01T01:23:33;18.00;;;8.00;;
18174;SDS011;9212;50.894;16.714;2023-03-01T01:26:04;27.60;;;11.30;;
18174;SDS011;9212;50.894;16.714;2023-03-01T01:28:32;22.83;;;10.50;;
18174;SDS011;9212;50.894;16.714;2023-03-01T01:30:59;26.77;;;12.37;;
18174;SDS011;9212;50.894;16.714;2023-03-01T01:33:28;20.97;;;9.67;;
18174;SDS011;9212;50.894;16.714;2023-03-01T01:35:55;26.27;;;10.93;;
18174;SDS011;9212;50.894;16.714;2023-03-01T01:38:23;31.57;;;10.87;;
18174;SDS011;9212;50.894;16.714;2023-03-01T01:40:50;32.07;;;12.33;;
18174;SDS011;9212;50.894;16.714;2023-03-01T01:43:19;24.10;;;11.63;;
18174;SDS011;9212;50.894;16.714;2023-03-01T01:45:48;25.87;;;11.50;;
18174;SDS011;9212;50.894;16.714;2023-03-01T01:48:16;24.87;;;10.83;;
18174;SDS011;9212;50.894;16.714;2023-03-01T01:50:50;33.73;;;11.20;;
18174;SDS011;9212;50.894;16.714;2023-03-01T01:53:21;18.13;;;8.53;;
18174;SDS011;9212;50.894;16.714;2023-03-01T01:55:51;19.67;;;9.57;;
18174;SDS011;9212;50.894;16.714;2023-03-01T01:58:22;18.83;;;9.77;;
18174;SDS011;9212;50.894;16.714;2023-03-01T02:00:52;24.40;;;10.17;;
18174;SDS011;9212;50.894;16.714;2023-03-01T02:03:20;22.70;;;10.00;;
18174;SDS011;9212;50.894;16.714;2023-03-01T02:05:56;25.10;;;10.57;;
18174;SDS011;9212;50.894;16.714;2023-03-01T02:08:30;25.33;;;11.10;;
18174;SDS011;9212;50.894;16.714;2023-03-01T02:10:59;31.17;;;11.27;;
18174;SDS011;9212;50.894;16.714;2023-03-01T02:13:29;21.73;;;9.30;;
18174;SDS011;9212;50.894;16.714;2023-03-01T02:15:56;25.87;;;9.80;;
18174;SDS011;9212;50.894;16.714;2023-03-01T02:18:24;18.97;;;9.73;;
18174;SDS011;9212;50.894;16.714;2023-03-01T02:20:58;27.73;;;8.77;;
18174;SDS011;9212;50.894;16.714;2023-03-01T02:23:35;15.90;;;8.07;;
18174;SDS011;9212;50.894;16.714;2023-03-01T02:26:05;20.43;;;8.23;;
18174;SDS011;9212;50.894;16.714;2023-03-01T02:28:37;13.77;;;7.83;;
18174;SDS011;9212;50.894;16.714;2023-03-01T02:31:07;17.67;;;8.23;;
18174;SDS011;9212;50.894;16.714;2023-03-01T02:33:53;14.87;;;7.23;;
18174;SDS011;9212;50.894;16.714;2023-03-01T02:36:21;12.67;;;7.33;;
18174;SDS011;9212;50.894;16.714;2023-03-01T02:38:52;15.30;;;6.83;;
18174;SDS011;9212;50.894;16.714;2023-03-01T02:41:23;16.53;;;7.73;;
18174;SDS011;9212;50.894;16.714;2023-03-01T02:43:52;11.57;;;6.87;;
18174;SDS011;9212;50.894;16.714;2023-03-01T02:46:20;15.13;;;8.47;;
18174;SDS011;9212;50.894;16.714;2023-03-01T02:48:49;17.70;;;7.00;;
18174;SDS011;9212;50.894;16.714;2023-03-01T02:51:24;17.33;;;6.90;;
18174;SDS011;9212;50.894;16.714;2023-03-01T02:54:08;13.33;;;6.60;;
18174;SDS011;9212;50.894;16.714;2023-03-01T02:56:42;18.93;;;8.37;;
18174;SDS011;9212;50.894;16.714;2023-03-01T02:59:14;13.83;;;6.27;;
18174;SDS011;9212;50.894;16.714;2023-03-01T03:01:43;15.77;;;6.00;;
18174;SDS011;9212;50.894;16.714;2023-03-01T03:04:11;12.33;;;6.70;;
18174;SDS011;9212;50.894;16.714;2023-03-01T03:06:41;11.27;;;6.03;;
18174;SDS011;9212;50.894;16.714;2023-03-01T03:09:09;15.60;;;6.80;;
18174;SDS011;9212;50.894;16.714;2023-03-01T03:11:36;14.67;;;8.03;;
18174;SDS011;9212;50.894;16.714;2023-03-01T03:14:04;13.90;;;6.60;;
18174;SDS011;9212;50.894;16.714;2023-03-01T03:16:40;12.77;;;6.47;;
18174;SDS011;9212;50.894;16.714;2023-03-01T03:19:07;17.30;;;7.83;;
18174;SDS011;9212;50.894;16.714;2023-03-01T03:21:35;15.73;;;6.90;;
18174;SDS011;9212;50.894;16.714;2023-03-01T03:24:02;14.07;;;6.93;;
18174;SDS011;9212;50.894;16.714;2023-03-01T03:26:30;16.87;;;7.27;;
18174;SDS011;9212;50.894;16.714;2023-03-01T03:28:57;19.13;;;7.53;;
18174;SDS011;9212;50.894;16.714;2023-03-01T03:31:24;17.87;;;7.73;;
18174;SDS011;9212;50.894;16.714;2023-03-01T03:33:53;17.20;;;8.77;;
18174;SDS011;9212;50.894;16.714;2023-03-01T03:36:21;18.07;;;8.60;;
18174;SDS011;9212;50.894;16.714;2023-03-01T03:38:50;17.43;;;8.57;;
18174;SDS011;9212;50.894;16.714;2023-03-01T03:41:17;16.73;;;7.60;;
18174;SDS011;9212;50.894;16.714;2023-03-01T03:43:44;16.73;;;7.63;;
18174;SDS011;9212;50.894;16.714;2023-03-01T03:46:12;19.83;;;8.83;;
18174;SDS011;9212;50.894;16.714;2023-03-01T03:48:40;20.77;;;8.40;;
18174;SDS011;9212;50.894;16.714;2023-03-01T03:51:11;18.47;;;9.07;;
18174;SDS011;9212;50.894;16.714;2023-03-01T03:53:39;17.47;;;8.30;;
18174;SDS011;9212;50.894;16.714;2023-03-01T03:56:06;15.77;;;7.50;;
18174;SDS011;9212;50.894;16.714;2023-03-01T03:58:34;15.37;;;6.80;;
18174;SDS011;9212;50.894;16.714;2023-03-01T04:01:01;16.97;;;7.97;;
18174;SDS011;9212;50.894;16.714;2023-03-01T04:03:29;16.20;;;7.17;;
18174;SDS011;9212;50.894;16.714;2023-03-01T04:05:58;13.53;;;6.30;;
18174;SDS011;9212;50.894;16.714;2023-03-01T04:08:27;13.17;;;8.03;;
18174;SDS011;9212;50.894;16.714;2023-03-01T04:10:57;11.73;;;7.00;;
18174;SDS011;9212;50.894;16.714;2023-03-01T04:13:46;17.27;;;8.40;;
18174;SDS011;9212;50.894;16.714;2023-03-01T04:16:13;17.17;;;8.73;;
18174;SDS011;9212;50.894;16.714;2023-03-01T04:18:41;13.27;;;7.53;;
18174;SDS011;9212;50.894;16.714;2023-03-01T04:21:08;18.77;;;9.17;;
18174;SDS011;9212;50.894;16.714;2023-03-01T04:23:37;20.73;;;7.77;;
18174;SDS011;9212;50.894;16.714;2023-03-01T04:26:06;18.73;;;8.27;;
18174;SDS011;9212;50.894;16.714;2023-03-01T04:28:34;22.10;;;8.47;;
18174;SDS011;9212;50.894;16.714;2023-03-01T04:31:03;17.57;;;9.43;;
18174;SDS011;9212;50.894;16.714;2023-03-01T04:33:38;26.90;;;11.17;;
18174;SDS011;9212;50.894;16.714;2023-03-01T04:36:06;25.17;;;10.37;;
18174;SDS011;9212;50.894;16.714;2023-03-01T04:38:35;22.27;;;10.10;;
18174;SDS011;9212;50.894;16.714;2023-03-01T04:41:05;23.97;;;10.97;;
18174;SDS011;9212;50.894;16.714;2023-03-01T04:43:32;25.43;;;11.47;;
18174;SDS011;9212;50.894;16.714;2023-03-01T04:46:00;38.73;;;16.87;;
18174;SDS011;9212;50.894;16.714;2023-03-01T04:48:29;30.73;;;12.00;;
18174;SDS011;9212;50.894;16.714;2023-03-01T04:50:57;29.90;;;12.60;;
18174;SDS011;9212;50.894;16.714;2023-03-01T04:53:25;26.57;;;12.03;;
18174;SDS011;9212;50.894;16.714;2023-03-01T04:55:53;28.77;;;11.20;;
18174;SDS011;9212;50.894;16.714;2023-03-01T04:58:21;33.67;;;13.50;;
18174;SDS011;9212;50.894;16.714;2023-03-01T05:00:48;21.97;;;10.73;;
18174;SDS011;9212;50.894;16.714;2023-03-01T05:03:15;27.60;;;12.23;;
18174;SDS011;9212;50.894;16.714;2023-03-01T05:05:43;23.97;;;11.93;;
18174;SDS011;9212;50.894;16.714;2023-03-01T05:08:12;37.73;;;13.50;;
18174;SDS011;9212;50.894;16.714;2023-03-01T05:10:42;31.53;;;11.97;;
18174;SDS011;9212;50.894;16.714;2023-03-01T05:13:12;29.70;;;13.43;;
18174;SDS011;9212;50.894;16.714;2023-03-01T05:15:47;27.53;;;11.87;;
18174;SDS011;9212;50.894;16.714;2023-03-01T05:18:15;26.77;;;12.40;;
18174;SDS011;9212;50.894;16.714;2023-03-01T05:20:42;23.87;;;11.77;;
18174;SDS011;9212;50.894;16.714;2023-03-01T05:23:10;29.87;;;11.47;;
18174;SDS011;9212;50.894;16.714;2023-03-01T05:25:37;26.63;;;10.70;;
18174;SDS011;9212;50.894;16.714;2023-03-01T05:28:06;25.50;;;10.27;;
18174;SDS011;9212;50.894;16.714;2023-03-01T05:30:35;20.20;;;9.30;;
18174;SDS011;9212;50.894;16.714;2023-03-01T05:33:05;23.00;;;10.73;;
18174;SDS011;9212;50.894;16.714;2023-03-01T05:35:38;26.13;;;10.77;;
18174;SDS011;9212;50.894;16.714;2023-03-01T05:38:05;24.50;;;9.77;;
18174;SDS011;9212;50.894;16.714;2023-03-01T05:40:33;24.87;;;11.40;;
18174;SDS011;9212;50.894;16.714;2023-03-01T05:43:00;27.03;;;10.90;;
18174;SDS011;9212;50.894;16.714;2023-03-01T05:45:30;25.07;;;10.90;;
18174;SDS011;9212;50.894;16.714;2023-03-01T05:47:58;22.47;;;9.33;;
18174;SDS011;9212;50.894;16.714;2023-03-01T05:50:27;19.70;;;8.90;;
18174;SDS011;9212;50.894;16.714;2023-03-01T05:52:57;19.83;;;9.93;;
18174;SDS011;9212;50.894;16.714;2023-03-01T05:55:25;16.73;;;8.63;;
18174;SDS011;9212;50.894;16.714;2023-03-01T05:57:54;25.90;;;9.77;;
18174;SDS011;9212;50.894;16.714;2023-03-01T06:00:21;16.10;;;7.37;;
18174;SDS011;9212;50.894;16.714;2023-03-01T06:02:48;14.47;;;7.57;;
18174;SDS011;9212;50.894;16.714;2023-03-01T06:05:17;16.27;;;7.27;;
18174;SDS011;9212;50.894;16.714;2023-03-01T06:07:45;13.93;;;7.60;;
18174;SDS011;9212;50.894;16.714;2023-03-01T06:10:13;10.83;;;7.53;;
18174;SDS011;9212;50.894;16.714;2023-03-01T06:12:40;16.77;;;7.23;;
18174;SDS011;9212;50.894;16.714;2023-03-01T06:15:09;13.60;;;7.17;;
18174;SDS011;9212;50.894;16.714;2023-03-01T06:17:37;9.70;;;7.00;;
18174;SDS011;9212;50.894;16.714;2023-03-01T06:20:06;18.80;;;6.87;;
18174;SDS011;9212;50.894;16.714;2023-03-01T06:22:36;17.83;;;8.90;;
18174;SDS011;9212;50.894;16.714;2023-03-01T06:25:05;18.03;;;6.73;;
18174;SDS011;9212;50.894;16.714;2023-03-01T06:27:33;19.27;;;7.93;;
18174;SDS011;9212;50.894;16.714;2023-03-01T06:30:00;20.03;;;7.90;;
18174;SDS011;9212;50.894;16.714;2023-03-01T06:32:27;18.10;;;8.13;;
18174;SDS011;9212;50.894;16.714;2023-03-01T06:34:55;12.33;;;6.63;;
18174;SDS011;9212;50.894;16.714;2023-03-01T06:37:23;19.10;;;8.10;;
18174;SDS011;9212;50.894;16.714;2023-03-01T06:39:50;20.43;;;8.90;;
18174;SDS011;9212;50.894;16.714;2023-03-01T06:42:19;29.57;;;10.33;;
18174;SDS011;9212;50.894;16.714;2023-03-01T06:44:46;18.13;;;8.70;;
18174;SDS011;9212;50.894;16.714;2023-03-01T06:47:13;18.33;;;9.10;;
18174;SDS011;9212;50.894;16.714;2023-03-01T06:49:41;19.90;;;9.07;;
18174;SDS011;9212;50.894;16.714;2023-03-01T06:52:08;22.57;;;8.63;;
18174;SDS011;9212;50.894;16.714;2023-03-01T06:54:35;23.77;;;9.20;;
18174;SDS011;9212;50.894;16.714;2023-03-01T06:57:02;23.73;;;10.07;;
18174;SDS011;9212;50.894;16.714;2023-03-01T06:59:31;19.97;;;8.43;;
18174;SDS011;9212;50.894;16.714;2023-03-01T07:01:58;23.90;;;9.87;;
18174;SDS011;9212;50.894;16.714;2023-03-01T07:04:25;24.93;;;10.67;;
18174;SDS011;9212;50.894;16.714;2023-03-01T07:06:53;27.17;;;11.03;;
18174;SDS011;9212;50.894;16.714;2023-03-01T07:09:21;33.50;;;11.23;;
18174;SDS011;9212;50.894;16.714;2023-03-01T07:11:48;28.20;;;11.20;;
18174;SDS011;9212;50.894;16.714;2023-03-01T07:14:15;21.83;;;10.30;;
18174;SDS011;9212;50.894;16.714;2023-03-01T07:16:46;24.03;;;10.83;;
18174;SDS011;9212;50.894;16.714;2023-03-01T07:19:13;33.43;;;13.70;;
18174;SDS011;9212;50.894;16.714;2023-03-01T07:21:40;34.30;;;13.47;;
18174;SDS011;9212;50.894;16.714;2023-03-01T07:24:07;41.60;;;16.03;;
18174;SDS011;9212;50.894;16.714;2023-03-01T07:26:34;37.93;;;16.90;;
18174;SDS011;9212;50.894;16.714;2023-03-01T07:29:02;52.50;;;19.60;;
18174;SDS011;9212;50.894;16.714;2023-03-01T07:31:31;52.07;;;19.93;;
18174;SDS011;9212;50.894;16.714;2023-03-01T07:33:59;55.60;;;20.67;;
18174;SDS011;9212;50.894;16.714;2023-03-01T07:36:26;59.53;;;21.57;;
18174;SDS011;9212;50.894;16.714;2023-03-01T07:38:54;61.80;;;24.00;;
18174;SDS011;9212;50.894;16.714;2023-03-01T07:41:22;74.83;;;27.70;;
18174;SDS011;9212;50.894;16.714;2023-03-01T07:43:50;73.83;;;27.40;;
18174;SDS011;9212;50.894;16.714;2023-03-01T07:46:17;66.33;;;24.47;;
18174;SDS011;9212;50.894;16.714;2023-03-01T07:48:44;58.30;;;25.93;;
18174;SDS011;9212;50.894;16.714;2023-03-01T07:51:13;70.83;;;27.17;;
18174;SDS011;9212;50.894;16.714;2023-03-01T07:53:40;67.33;;;25.33;;
18174;SDS011;9212;50.894;16.714;2023-03-01T07:56:08;69.70;;;27.43;;
18174;SDS011;9212;50.894;16.714;2023-03-01T07:58:37;67.30;;;27.10;;
18174;SDS011;9212;50.894;16.714;2023-03-01T08:01:06;67.10;;;27.03;;
18174;SDS011;9212;50.894;16.714;2023-03-01T08:03:34;80.37;;;28.70;;
18174;SDS011;9212;50.894;16.714;2023-03-01T08:06:01;79.63;;;26.03;;
18174;SDS011;9212;50.894;16.714;2023-03-01T08:08:31;72.10;;;28.83;;
18174;SDS011;9212;50.894;16.714;2023-03-01T08:10:59;70.27;;;29.53;;
18174;SDS011;9212;50.894;16.714;2023-03-01T08:13:28;65.80;;;27.53;;
18174;SDS011;9212;50.894;16.714;2023-03-01T08:16:00;69.67;;;27.80;;
18174;SDS011;9212;50.894;16.714;2023-03-01T08:18:28;69.20;;;26.07;;
18174;SDS011;9212;50.894;16.714;2023-03-01T08:20:55;70.70;;;28.67;;
18174;SDS011;9212;50.894;16.714;2023-03-01T08:23:23;75.23;;;28.00;;
18174;SDS011;9212;50.894;16.714;2023-03-01T08:25:52;69.60;;;27.57;;
18174;SDS011;9212;50.894;16.714;2023-03-01T08:28:19;69.63;;;26.70;;
18174;SDS011;9212;50.894;16.714;2023-03-01T08:30:46;75.93;;;29.33;;
18174;SDS011;9212;50.894;16.714;2023-03-01T08:33:13;70.77;;;29.57;;
18174;SDS011;9212;50.894;16.714;2023-03-01T08:35:40;71.70;;;28.37;;
18174;SDS011;9212;50.894;16.714;2023-03-01T08:38:08;73.27;;;29.27;;
18174;SDS011;9212;50.894;16.714;2023-03-01T08:40:35;66.93;;;28.30;;
18174;SDS011;9212;50.894;16.714;2023-03-01T08:43:03;72.50;;;27.30;;
18174;SDS011;9212;50.894;16.714;2023-03-01T08:45:30;73.27;;;29.63;;
18174;SDS011;9212;50.894;16.714;2023-03-01T08:47:58;70.63;;;28.30;;
18174;SDS011;9212;50.894;16.714;2023-03-01T08:50:25;76.87;;;29.17;;
18174;SDS011;9212;50.894;16.714;2023-03-01T08:52:52;74.83;;;29.47;;
18174;SDS011;9212;50.894;16.714;2023-03-01T08:55:19;63.07;;;26.77;;
18174;SDS011;9212;50.894;16.714;2023-03-01T08:57:47;64.70;;;26.83;;
18174;SDS011;9212;50.894;16.714;2023-03-01T09:00:16;65.37;;;26.37;;
18174;SDS011;9212;50.894;16.714;2023-03-01T09:02:43;64.60;;;25.40;;
18174;SDS011;9212;50.894;16.714;2023-03-01T09:05:10;57.60;;;22.83;;
18174;SDS011;9212;50.894;16.714;2023-03-01T09:07:38;51.27;;;21.40;;
18174;SDS011;9212;50.894;16.714;2023-03-01T09:10:05;44.70;;;19.43;;
18174;SDS011;9212;50.894;16.714;2023-03-01T09:12:33;49.77;;;21.63;;
18174;SDS011;9212;50.894;16.714;2023-03-01T09:15:00;53.90;;;20.30;;
18174;SDS011;9212;50.894;16.714;2023-03-01T09:17:28;62.67;;;25.20;;
18174;SDS011;9212;50.894;16.714;2023-03-01T09:19:55;56.50;;;23.93;;
18174;SDS011;9212;50.894;16.714;2023-03-01T09:22:24;39.77;;;17.10;;
18174;SDS011;9212;50.894;16.714;2023-03-01T09:24:51;41.50;;;17.30;;
18174;SDS011;9212;50.894;16.714;2023-03-01T09:27:18;56.80;;;21.27;;
18174;SDS011;9212;50.894;16.714;2023-03-01T09:29:45;44.67;;;16.40;;
18174;SDS011;9212;50.894;16.714;2023-03-01T09:32:12;28.03;;;12.20;;
18174;SDS011;9212;50.894;16.714;2023-03-01T09:34:41;23.87;;;11.00;;
18174;SDS011;9212;50.894;16.714;2023-03-01T09:37:22;20.27;;;10.70;;
18174;SDS011;9212;50.894;16.714;2023-03-01T09:39:49;24.67;;;11.60;;
18174;SDS011;9212;50.894;16.714;2023-03-01T09:42:16;29.53;;;12.33;;
18174;SDS011;9212;50.894;16.714;2023-03-01T09:44:45;35.77;;;14.83;;
18174;SDS011;9212;50.894;16.714;2023-03-01T09:47:18;36.47;;;14.33;;
18174;SDS011;9212;50.894;16.714;2023-03-01T09:49:50;40.73;;;14.90;;
18174;SDS011;9212;50.894;16.714;2023-03-01T09:52:26;34.47;;;15.53;;
18174;SDS011;9212;50.894;16.714;2023-03-01T09:54:59;32.03;;;13.77;;
18174;SDS011;9212;50.894;16.714;2023-03-01T09:57:28;34.37;;;13.87;;
18174;SDS011;9212;50.894;16.714;2023-03-01T10:00:09;31.77;;;14.13;;
18174;SDS011;9212;50.894;16.714;2023-03-01T10:02:55;37.87;;;14.30;;
18174;SDS011;9212;50.894;16.714;2023-03-01T10:05:32;32.23;;;13.50;;
18174;SDS011;9212;50.894;16.714;2023-03-01T10:08:14;21.03;;;10.70;;
18174;SDS011;9212;50.894;16.714;2023-03-01T10:10:51;25.80;;;11.60;;
18174;SDS011;9212;50.894;16.714;2023-03-01T10:13:20;39.03;;;14.03;;
18174;SDS011;9212;50.894;16.714;2023-03-01T10:15:53;27.03;;;12.57;;
18174;SDS011;9212;50.894;16.714;2023-03-01T10:18:23;23.07;;;11.67;;
18174;SDS011;9212;50.894;16.714;2023-03-01T10:20:55;24.53;;;11.90;;
18174;SDS011;9212;50.894;16.714;2023-03-01T10:23:25;22.03;;;11.33;;
18174;SDS011;9212;50.894;16.714;2023-03-01T10:26:02;26.57;;;12.20;;
18174;SDS011;9212;50.894;16.714;2023-03-01T10:28:50;25.40;;;11.77;;
18174;SDS011;9212;50.894;16.714;2023-03-01T10:31:29;27.93;;;12.90;;
18174;SDS011;9212;50.894;16.714;2023-03-01T10:34:07;24.37;;;11.87;;
18174;SDS011;9212;50.894;16.714;2023-03-01T10:36:38;26.27;;;12.47;;
18174;SDS011;9212;50.894;16.714;2023-03-01T10:39:11;29.60;;;12.80;;
18174;SDS011;9212;50.894;16.714;2023-03-01T10:41:49;25.47;;;12.00;;
18174;SDS011;9212;50.894;16.714;2023-03-01T10:44:41;30.30;;;12.77;;
18174;SDS011;9212;50.894;16.714;2023-03-01T10:47:14;27.07;;;12.47;;
18174;SDS011;9212;50.894;16.714;2023-03-01T10:52:55;27.30;;;13.17;;
18174;SDS011;9212;50.894;16.714;2023-03-01T10:55:24;29.87;;;13.00;;
18174;SDS011;9212;50.894;16.714;2023-03-01T10:58:09;31.67;;;14.87;;
18174;SDS011;9212;50.894;16.714;2023-03-01T11:00:47;32.23;;;14.30;;
18174;SDS011;9212;50.894;16.714;2023-03-01T11:03:18;28.67;;;12.30;;
18174;SDS011;9212;50.894;16.714;2023-03-01T11:05:55;23.97;;;12.17;;
18174;SDS011;9212;50.894;16.714;2023-03-01T11:11:25;29.53;;;12.40;;
18174;SDS011;9212;50.894;16.714;2023-03-01T11:13:58;29.83;;;13.03;;
18174;SDS011;9212;50.894;16.714;2023-03-01T11:16:31;29.17;;;15.13;;
18174;SDS011;9212;50.894;16.714;2023-03-01T11:19:01;24.47;;;13.57;;
18174;SDS011;9212;50.894;16.714;2023-03-01T11:21:55;29.70;;;14.07;;
18174;SDS011;9212;50.894;16.714;2023-03-01T11:24:30;28.90;;;13.67;;
18174;SDS011;9212;50.894;16.714;2023-03-01T11:27:02;23.53;;;12.17;;
18174;SDS011;9212;50.894;16.714;2023-03-01T11:29:32;29.27;;;13.37;;
18174;SDS011;9212;50.894;16.714;2023-03-01T11:32:04;27.87;;;13.27;;
18174;SDS011;9212;50.894;16.714;2023-03-01T11:34:37;27.93;;;12.97;;
18174;SDS011;9212;50.894;16.714;2023-03-01T11:37:10;25.93;;;11.57;;
18174;SDS011;9212;50.894;16.714;2023-03-01T11:39:51;22.80;;;11.47;;
18174;SDS011;9212;50.894;16.714;2023-03-01T11:42:28;24.27;;;12.00;;
18174;SDS011;9212;50.894;16.714;2023-03-01T11:45:06;26.50;;;12.27;;
18174;SDS011;9212;50.894;16.714;2023-03-01T11:47:40;24.30;;;12.00;;
18174;SDS011;9212;50.894;16.714;2023-03-01T11:50:19;31.43;;;12.63;;
18174;SDS011;9212;50.894;16.714;2023-03-01T11:52:57;33.03;;;13.93;;
18174;SDS011;9212;50.894;16.714;2023-03-01T11:55:43;25.43;;;12.93;;
18174;SDS011;9212;50.894;16.714;2023-03-01T11:58:27;28.10;;;12.97;;
18174;SDS011;9212;50.894;16.714;2023-03-01T12:01:09;24.90;;;12.67;;
18174;SDS011;9212;50.894;16.714;2023-03-01T12:03:52;26.30;;;12.07;;
18174;SDS011;9212;50.894;16.714;2023-03-01T12:06:37;27.53;;;13.33;;
18174;SDS011;9212;50.894;16.714;2023-03-01T12:09:17;16.23;;;8.40;;
18174;SDS011;9212;50.894;16.714;2023-03-01T12:11:58;21.60;;;11.70;;
18174;SDS011;9212;50.894;16.714;2023-03-01T12:14:42;31.10;;;13.17;;
18174;SDS011;9212;50.894;16.714;2023-03-01T12:17:28;28.67;;;11.93;;
18174;SDS011;9212;50.894;16.714;2023-03-01T12:20:11;27.97;;;13.30;;
18174;SDS011;9212;50.894;16.714;2023-03-01T12:22:50;26.70;;;13.20;;
18174;SDS011;9212;50.894;16.714;2023-03-01T12:25:34;30.60;;;14.20;;
18174;SDS011;9212;50.894;16.714;2023-03-01T12:28:15;29.60;;;12.97;;
18174;SDS011;9212;50.894;16.714;2023-03-01T12:31:15;26.23;;;12.40;;
18174;SDS011;9212;50.894;16.714;2023-03-01T12:33:56;23.03;;;12.57;;
18174;SDS011;9212;50.894;16.714;2023-03-01T12:36:36;27.83;;;13.87;;
18174;SDS011;9212;50.894;16.714;2023-03-01T12:39:17;26.57;;;14.03;;
18174;SDS011;9212;50.894;16.714;2023-03-01T12:42:06;26.40;;;13.73;;
18174;SDS011;9212;50.894;16.714;2023-03-01T12:44:50;25.83;;;14.43;;
18174;SDS011;9212;50.894;16.714;2023-03-01T12:47:31;28.53;;;13.73;;
18174;SDS011;9212;50.894;16.714;2023-03-01T12:50:11;32.33;;;14.30;;
18174;SDS011;9212;50.894;16.714;2023-03-01T12:52:45;33.90;;;15.43;;
18174;SDS011;9212;50.894;16.714;2023-03-01T12:55:24;28.30;;;14.10;;
18174;SDS011;9212;50.894;16.714;2023-03-01T12:57:57;24.83;;;13.83;;
18174;SDS011;9212;50.894;16.714;2023-03-01T13:00:35;27.20;;;12.73;;
18174;SDS011;9212;50.894;16.714;2023-03-01T13:03:09;31.97;;;15.33;;
18174;SDS011;9212;50.894;16.714;2023-03-01T13:05:47;32.00;;;14.07;;
18174;SDS011;9212;50.894;16.714;2023-03-01T13:08:29;30.57;;;13.73;;
18174;SDS011;9212;50.894;16.714;2023-03-01T13:11:03;25.13;;;11.57;;
18174;SDS011;9212;50.894;16.714;2023-03-01T13:13:32;27.37;;;12.60;;
18174;SDS011;9212;50.894;16.714;2023-03-01T13:16:19;29.53;;;12.23;;
18174;SDS011;9212;50.894;16.714;2023-03-01T13:18:48;27.87;;;13.93;;
18174;SDS011;9212;50.894;16.714;2023-03-01T13:21:23;27.57;;;14.03;;
18174;SDS011;9212;50.894;16.714;2023-03-01T13:23:56;29.27;;;14.17;;
18174;SDS011;9212;50.894;16.714;2023-03-01T13:26:23;27.57;;;12.80;;
18174;SDS011;9212;50.894;16.714;2023-03-01T13:28:54;26.33;;;12.20;;
18174;SDS011;9212;50.894;16.714;2023-03-01T13:34:42;27.57;;;13.60;;
18174;SDS011;9212;50.894;16.714;2023-03-01T13:37:17;26.63;;;13.43;;
18174;SDS011;9212;50.894;16.714;2023-03-01T13:39:48;22.77;;;12.43;;
18174;SDS011;9212;50.894;16.714;2023-03-01T13:42:29;30.37;;;14.30;;
18174;SDS011;9212;50.894;16.714;2023-03-01T13:45:03;29.73;;;14.13;;
18174;SDS011;9212;50.894;16.714;2023-03-01T13:47:41;29.90;;;14.67;;
18174;SDS011;9212;50.894;16.714;2023-03-01T13:50:15;34.43;;;14.00;;
18174;SDS011;9212;50.894;16.714;2023-03-01T13:52:48;30.50;;;13.87;;
18174;SDS011;9212;50.894;16.714;2023-03-01T13:55:18;28.73;;;14.07;;
18174;SDS011;9212;50.894;16.714;2023-03-01T13:57:48;27.77;;;13.60;;
18174;SDS011;9212;50.894;16.714;2023-03-01T14:03:12;33.23;;;15.43;;
18174;SDS011;9212;50.894;16.714;2023-03-01T14:05:41;28.40;;;14.07;;
18174;SDS011;9212;50.894;16.714;2023-03-01T14:08:19;36.20;;;14.67;;
18174;SDS011;9212;50.894;16.714;2023-03-01T14:11:01;29.27;;;14.47;;
18174;SDS011;9212;50.894;16.714;2023-03-01T14:13:56;31.03;;;14.53;;
18174;SDS011;9212;50.894;16.714;2023-03-01T14:16:37;37.17;;;14.63;;
18174;SDS011;9212;50.894;16.714;2023-03-01T14:19:16;29.43;;;13.43;;
18174;SDS011;9212;50.894;16.714;2023-03-01T14:21:46;24.90;;;14.07;;
18174;SDS011;9212;50.894;16.714;2023-03-01T14:24:17;24.57;;;13.57;;
18174;SDS011;9212;50.894;16.714;2023-03-01T14:26:46;27.03;;;14.07;;
18174;SDS011;9212;50.894;16.714;2023-03-01T14:29:24;28.13;;;12.83;;
18174;SDS011;9212;50.894;16.714;2023-03-01T14:31:52;34.90;;;14.67;;
18174;SDS011;9212;50.894;16.714;2023-03-01T14:34:21;25.93;;;12.87;;
18174;SDS011;9212;50.894;16.714;2023-03-01T14:36:49;32.60;;;15.17;;
18174;SDS011;9212;50.894;16.714;2023-03-01T14:39:17;36.50;;;14.00;;
18174;SDS011;9212;50.894;16.714;2023-03-01T14:41:46;32.00;;;14.57;;
18174;SDS011;9212;50.894;16.714;2023-03-01T14:44:14;32.97;;;15.37;;
18174;SDS011;9212;50.894;16.714;2023-03-01T14:46:43;29.73;;;13.50;;
18174;SDS011;9212;50.894;16.714;2023-03-01T14:49:12;32.80;;;14.50;;
18174;SDS011;9212;50.894;16.714;2023-03-01T14:51:46;26.17;;;13.03;;
18174;SDS011;9212;50.894;16.714;2023-03-01T14:54:19;25.10;;;12.97;;
18174;SDS011;9212;50.894;16.714;2023-03-01T14:56:48;31.30;;;15.07;;
18174;SDS011;9212;50.894;16.714;2023-03-01T14:59:15;33.57;;;15.43;;
18174;SDS011;9212;50.894;16.714;2023-03-01T15:01:47;35.60;;;14.80;;